Time;durP1;ratioP1;P1;durP2;ratioP2;P2;SDS_P1;SDS_P2;PMS_P1;PMS_P2;Temp;Humidity;BMP_temperature;BMP_pressure;BME280_temperature;BME280_humidity;BME280_pressure;Samples;Min_cycle;Max_cycle;Signal;HPM_P1;HPM_P2
2022/05/17 00:01:48;;;;;;;18.70;16.48;;;;;;;;;;4880467;29;20045;-73
2022/05/17 00:04:15;;;;;;;21.77;15.35;;;;;;;;;;4880736;29;20472;-73
2022/05/17 00:06:49;;;;;;;19.20;15.65;;;;;;;;;;4880658;29;20041;-73
2022/05/17 00:09:19;;;;;;;18.55;14.57;;;;;;;;;;4880553;29;20041;-73
2022/05/17 00:11:52;;;;;;;16.13;13.30;;;;;;;;;;4881247;29;20071;-73
2022/05/17 00:14:45;;;;;;;14.77;12.70;;;;;;;;;;4880579;29;20041;-73
2022/05/17 00:17:19;;;;;;;16.77;12.25;;;;;;;;;;4880761;29;20060;-73
2022/05/17 00:19:47;;;;;;;15.07;11.80;;;;;;;;;;4880547;29;20049;-73
2022/05/17 00:22:42;;;;;;;14.68;11.45;;;;;;;;;;4879992;29;20057;-73
2022/05/17 00:25:10;;;;;;;11.00;9.90;;;;;;;;;;4898052;29;20052;-73
2022/05/17 00:31:34;;;;;;;9.50;8.52;;;;;;;;;;4917574;29;20121;-72
2022/05/17 00:34:05;;;;;;;9.25;8.30;;;;;;;;;;4917446;29;20123;-73
2022/05/17 00:36:37;;;;;;;14.35;9.13;;;;;;;;;;4917216;29;20046;-72
2022/05/17 00:39:11;;;;;;;13.38;9.13;;;;;;;;;;4917759;29;20550;-73
2022/05/17 00:41:43;;;;;;;10.43;9.30;;;;;;;;;;4917957;29;20044;-73
2022/05/17 00:47:19;;;;;;;10.70;9.32;;;;;;;;;;4917236;29;20032;-73
2022/05/17 00:50:14;;;;;;;10.25;9.20;;;;;;;;;;4917481;29;20071;-73
2022/05/17 00:53:05;;;;;;;10.45;9.45;;;;;;;;;;4882741;29;20063;-73
2022/05/17 00:55:42;;;;;;;11.30;9.77;;;;;;;;;;4917413;29;20396;-73
2022/05/17 00:58:15;;;;;;;11.80;10.40;;;;;;;;;;4917482;29;20047;-73
2022/05/17 01:01:10;;;;;;;11.63;10.43;;;;;;;;;;4917514;29;20067;-72
2022/05/17 01:03:42;;;;;;;12.10;10.67;;;;;;;;;;4914325;29;20063;-72
2022/05/17 01:06:12;;;;;;;12.00;10.63;;;;;;;;;;4917105;29;20127;-73
2022/05/17 01:08:43;;;;;;;11.00;9.90;;;;;;;;;;4917276;29;20044;-73
2022/05/17 01:11:33;;;;;;;15.73;11.20;;;;;;;;;;4917192;29;20068;-72
2022/05/17 01:17:41;;;;;;;13.10;10.77;;;;;;;;;;4916946;29;20032;-72
2022/05/17 01:20:12;;;;;;;12.43;10.38;;;;;;;;;;4916531;29;20048;-72
2022/05/17 01:22:45;;;;;;;13.27;10.95;;;;;;;;;;4917169;29;20122;-72
2022/05/17 01:25:12;;;;;;;14.88;10.90;;;;;;;;;;4916958;29;20518;-72
2022/05/17 01:27:48;;;;;;;14.10;11.93;;;;;;;;;;4916683;29;20403;-72
2022/05/17 01:30:24;;;;;;;14.85;10.90;;;;;;;;;;4917025;29;20051;-72
2022/05/17 01:33:00;;;;;;;11.40;10.25;;;;;;;;;;4917186;29;20041;-72
2022/05/17 01:35:27;;;;;;;13.00;10.38;;;;;;;;;;4917149;29;20036;-72
2022/05/17 01:37:59;;;;;;;12.93;11.60;;;;;;;;;;4902952;29;20545;-72
2022/05/17 01:40:33;;;;;;;13.68;11.85;;;;;;;;;;4920887;29;20052;-72
2022/05/17 01:43:01;;;;;;;12.95;11.55;;;;;;;;;;4920587;29;20068;-73
2022/05/17 01:45:31;;;;;;;13.38;11.73;;;;;;;;;;4920891;29;20063;-72
2022/05/17 01:48:03;;;;;;;13.68;11.40;;;;;;;;;;4921129;29;20381;-73
2022/05/17 01:50:31;;;;;;;13.48;11.68;;;;;;;;;;4921115;29;20111;-73
2022/05/17 01:52:59;;;;;;;18.10;11.77;;;;;;;;;;4920065;29;20055;-72
2022/05/17 01:55:32;;;;;;;15.63;11.30;;;;;;;;;;4920633;29;20072;-72
2022/05/17 01:58:00;;;;;;;13.55;12.13;;;;;;;;;;4920759;29;20466;-73
2022/05/17 02:00:30;;;;;;;12.98;11.57;;;;;;;;;;4920061;29;20130;-72
2022/05/17 02:03:04;;;;;;;14.32;12.32;;;;;;;;;;4920678;29;20119;-73
2022/05/17 02:05:33;;;;;;;14.60;11.77;;;;;;;;;;4921077;29;20103;-72
2022/05/17 02:08:05;;;;;;;14.52;11.85;;;;;;;;;;4920253;29;20496;-73
2022/05/17 02:10:39;;;;;;;16.60;12.52;;;;;;;;;;4920291;29;20036;-73
2022/05/17 02:13:08;;;;;;;15.02;12.63;;;;;;;;;;4920204;29;20063;-72
2022/05/17 02:15:39;;;;;;;13.45;11.93;;;;;;;;;;4920254;29;20036;-72
2022/05/17 02:18:13;;;;;;;17.48;13.57;;;;;;;;;;4920331;29;20059;-73
2022/05/17 02:20:42;;;;;;;14.50;12.45;;;;;;;;;;4920148;29;20082;-72
2022/05/17 02:23:10;;;;;;;14.38;12.77;;;;;;;;;;4920029;29;20048;-72
2022/05/17 02:25:44;;;;;;;15.00;13.27;;;;;;;;;;4920105;29;20087;-73
2022/05/17 02:28:14;;;;;;;25.88;13.52;;;;;;;;;;4919871;29;20055;-73
2022/05/17 02:30:44;;;;;;;17.17;13.43;;;;;;;;;;4920076;29;20078;-72
2022/05/17 02:33:14;;;;;;;15.65;13.50;;;;;;;;;;4919950;29;20127;-73
2022/05/17 02:35:45;;;;;;;19.73;13.48;;;;;;;;;;4920020;29;20582;-72
2022/05/17 02:38:18;;;;;;;17.45;14.00;;;;;;;;;;4919802;29;20452;-72
2022/05/17 02:40:49;;;;;;;17.98;14.25;;;;;;;;;;4919665;29;20048;-72
2022/05/17 02:43:42;;;;;;;18.20;13.98;;;;;;;;;;4920217;29;20139;-72
2022/05/17 02:46:10;;;;;;;19.60;14.10;;;;;;;;;;4919581;29;20048;-72
2022/05/17 02:48:43;;;;;;;17.75;14.13;;;;;;;;;;4919195;29;20491;-73
2022/05/17 02:51:13;;;;;;;16.67;13.88;;;;;;;;;;4919466;29;20547;-73
2022/05/17 02:53:43;;;;;;;17.83;14.18;;;;;;;;;;4919411;29;20044;-73
2022/05/17 02:56:13;;;;;;;18.65;14.02;;;;;;;;;;4919348;29;20079;-73
2022/05/17 02:58:44;;;;;;;17.83;14.10;;;;;;;;;;4919730;29;20040;-72
2022/05/17 03:01:13;;;;;;;16.83;13.60;;;;;;;;;;4919681;29;20054;-73
2022/05/17 03:03:43;;;;;;;16.67;13.90;;;;;;;;;;4919296;29;20048;-73
2022/05/17 03:06:13;;;;;;;16.85;13.40;;;;;;;;;;4919088;29;20051;-72
2022/05/17 03:08:47;;;;;;;16.65;13.45;;;;;;;;;;4919283;29;20140;-72
2022/05/17 03:11:43;;;;;;;15.88;13.65;;;;;;;;;;4902389;29;20080;-72
2022/05/17 03:14:17;;;;;;;20.35;13.00;;;;;;;;;;4919325;29;20078;-72
2022/05/17 03:16:45;;;;;;;26.52;13.93;;;;;;;;;;4919081;29;20040;-72
2022/05/17 03:19:17;;;;;;;21.92;14.20;;;;;;;;;;4919150;29;20052;-72
2022/05/17 03:21:44;;;;;;;18.90;13.90;;;;;;;;;;4918674;29;20071;-72
2022/05/17 03:24:12;;;;;;;18.67;13.65;;;;;;;;;;4918303;29;20068;-73
2022/05/17 03:27:00;;;;;;;18.80;13.90;;;;;;;;;;4918563;29;20107;-73
2022/05/17 03:29:31;;;;;;;19.00;12.95;;;;;;;;;;4918821;29;20487;-73
2022/05/17 03:32:01;;;;;;;23.80;13.80;;;;;;;;;;4918641;29;20048;-72
2022/05/17 03:34:32;;;;;;;17.77;12.73;;;;;;;;;;4919152;29;20119;-72
2022/05/17 03:37:02;;;;;;;19.27;11.88;;;;;;;;;;4918757;29;20076;-72
2022/05/17 03:39:32;;;;;;;17.50;12.73;;;;;;;;;;4918480;29;20044;-72
2022/05/17 03:42:01;;;;;;;19.63;13.00;;;;;;;;;;4918691;29;20093;-72
2022/05/17 03:44:28;;;;;;;14.45;12.48;;;;;;;;;;4918073;29;20377;-72
2022/05/17 03:46:58;;;;;;;18.80;13.10;;;;;;;;;;4917874;29;20056;-72
2022/05/17 03:49:27;;;;;;;17.08;12.82;;;;;;;;;;4918339;29;20052;-72
2022/05/17 03:51:55;;;;;;;20.67;12.77;;;;;;;;;;4927701;29;20036;-72
2022/05/17 03:54:25;;;;;;;13.93;11.60;;;;;;;;;;4937436;29;20411;-73
2022/05/17 03:56:56;;;;;;;15.38;12.00;;;;;;;;;;4937260;29;20058;-72
2022/05/17 03:59:24;;;;;;;18.10;12.30;;;;;;;;;;4936581;29;20075;-72
2022/05/17 04:01:51;;;;;;;16.35;12.10;;;;;;;;;;4937233;29;20048;-72
2022/05/17 04:04:25;;;;;;;16.08;11.65;;;;;;;;;;4937296;29;20040;-72
2022/05/17 04:06:52;;;;;;;14.70;11.82;;;;;;;;;;4937273;29;20118;-72
2022/05/17 04:09:22;;;;;;;15.57;11.85;;;;;;;;;;4920532;29;20052;-72
2022/05/17 04:11:57;;;;;;;16.75;12.00;;;;;;;;;;4937043;29;20054;-72
2022/05/17 04:14:27;;;;;;;15.15;12.23;;;;;;;;;;4937399;29;20048;-72
2022/05/17 04:16:57;;;;;;;19.55;13.05;;;;;;;;;;4937054;29;20063;-72
2022/05/17 04:19:27;;;;;;;17.25;14.52;;;;;;;;;;4937024;29;20122;-72
2022/05/17 04:22:07;;;;;;;21.48;15.90;;;;;;;;;;4937217;29;20043;-72
2022/05/17 04:24:34;;;;;;;20.90;16.42;;;;;;;;;;4936736;29;20131;-73
2022/05/17 04:27:16;;;;;;;21.17;17.85;;;;;;;;;;4936813;29;20537;-72
2022/05/17 04:29:43;;;;;;;19.08;16.55;;;;;;;;;;4936548;29;20083;-72
2022/05/17 04:32:15;;;;;;;17.48;14.75;;;;;;;;;;4936845;29;20043;-72
2022/05/17 04:34:43;;;;;;;17.83;13.48;;;;;;;;;;4936397;29;20058;-72
2022/05/17 04:37:20;;;;;;;18.05;14.02;;;;;;;;;;4936719;29;20048;-72
2022/05/17 04:39:52;;;;;;;18.15;15.13;;;;;;;;;;4936600;29;20065;-72
2022/05/17 04:42:19;;;;;;;15.90;13.77;;;;;;;;;;4936319;29;20039;-72
2022/05/17 04:44:53;;;;;;;18.77;13.40;;;;;;;;;;4936669;29;20054;-72
2022/05/17 04:47:27;;;;;;;17.30;13.45;;;;;;;;;;4936156;29;20526;-72
2022/05/17 04:49:56;;;;;;;14.93;11.90;;;;;;;;;;4936348;29;20439;-73
2022/05/17 04:52:29;;;;;;;17.10;11.80;;;;;;;;;;4936446;29;20407;-73
2022/05/17 04:54:59;;;;;;;13.80;11.40;;;;;;;;;;4936616;29;20099;-72
2022/05/17 04:57:27;;;;;;;30.75;23.38;;;;;;;;;;4935861;29;20071;-72
2022/05/17 04:59:57;;;;;;;40.38;26.45;;;;;;;;;;4936049;29;20387;-73
2022/05/17 05:02:30;;;;;;;12.18;8.90;;;;;;;;;;4936390;29;20051;-73
2022/05/17 05:05:07;;;;;;;11.02;7.50;;;;;;;;;;4919341;29;20051;-73
2022/05/17 05:07:35;;;;;;;10.60;7.95;;;;;;;;;;4936391;29;20121;-72
2022/05/17 05:10:03;;;;;;;9.38;7.28;;;;;;;;;;4936143;29;20494;-72
2022/05/17 05:12:33;;;;;;;13.07;7.90;;;;;;;;;;4935938;29;20404;-72
2022/05/17 05:15:03;;;;;;;13.35;8.00;;;;;;;;;;4936460;29;20067;-72
2022/05/17 05:17:36;;;;;;;14.88;8.20;;;;;;;;;;4936201;29;20554;-72
2022/05/17 05:20:35;;;;;;;11.02;6.90;;;;;;;;;;4936183;29;20495;-72
2022/05/17 05:23:06;;;;;;;12.75;7.97;;;;;;;;;;4935793;29;20475;-72
2022/05/17 05:25:36;;;;;;;12.60;8.02;;;;;;;;;;4935559;29;20047;-73
2022/05/17 05:28:29;;;;;;;9.10;7.43;;;;;;;;;;4918859;29;20134;-72
2022/05/17 05:30:57;;;;;;;12.68;8.20;;;;;;;;;;4936511;29;20122;-72
2022/05/17 05:33:29;;;;;;;14.40;8.18;;;;;;;;;;4936114;29;20039;-73
2022/05/17 05:35:59;;;;;;;10.80;7.18;;;;;;;;;;4936325;29;20051;-72
2022/05/17 05:38:32;;;;;;;10.32;7.10;;;;;;;;;;4936019;29;20043;-73
2022/05/17 05:41:00;;;;;;;10.18;7.10;;;;;;;;;;4935852;29;20503;-72
2022/05/17 05:43:30;;;;;;;13.00;6.97;;;;;;;;;;4935656;29;20044;-73
2022/05/17 05:46:02;;;;;;;10.10;6.65;;;;;;;;;;4936169;29;20076;-73
2022/05/17 05:48:31;;;;;;;9.07;6.07;;;;;;;;;;4935775;29;20538;-72
2022/05/17 05:51:00;;;;;;;7.70;5.90;;;;;;;;;;4935640;29;20043;-73
2022/05/17 05:53:33;;;;;;;9.85;5.60;;;;;;;;;;4936140;29;20418;-73
2022/05/17 05:56:05;;;;;;;7.70;5.85;;;;;;;;;;4935945;29;20047;-73
2022/05/17 05:58:37;;;;;;;9.98;6.03;;;;;;;;;;4935637;29;20127;-71
2022/05/17 06:01:08;;;;;;;8.95;5.00;;;;;;;;;;4935992;29;20422;-71
2022/05/17 06:03:37;;;;;;;7.90;4.88;;;;;;;;;;4935797;29;20043;-71
2022/05/17 06:06:08;;;;;;;7.13;4.88;;;;;;;;;;4935505;29;20040;-73
2022/05/17 06:08:40;;;;;;;7.93;4.38;;;;;;;;;;4935755;29;20478;-73
2022/05/17 06:11:07;;;;;;;7.75;4.82;;;;;;;;;;4935522;29;20119;-71
2022/05/17 06:13:37;;;;;;;6.10;4.38;;;;;;;;;;4935449;29;20063;-70
2022/05/17 06:16:11;;;;;;;9.95;4.70;;;;;;;;;;4935970;29;20036;-72
2022/05/17 06:18:40;;;;;;;8.23;4.72;;;;;;;;;;4935612;29;20490;-72
2022/05/17 06:21:10;;;;;;;16.17;5.63;;;;;;;;;;4935850;29;20403;-73
2022/05/17 06:23:45;;;;;;;12.45;5.10;;;;;;;;;;4938208;29;20048;-73
2022/05/17 06:26:14;;;;;;;7.65;5.32;;;;;;;;;;4939276;29;20067;-74
2022/05/17 06:28:43;;;;;;;7.03;4.80;;;;;;;;;;4938829;29;20039;-73
2022/05/17 06:31:18;;;;;;;8.80;6.75;;;;;;;;;;4939065;29;20087;-73
2022/05/17 06:33:47;;;;;;;6.82;4.88;;;;;;;;;;4938950;29;20043;-71
2022/05/17 06:36:17;;;;;;;6.20;4.85;;;;;;;;;;4939439;29;20091;-71
2022/05/17 06:39:08;;;;;;;7.18;4.35;;;;;;;;;;4938778;29;20048;-71
2022/05/17 06:41:41;;;;;;;9.73;5.20;;;;;;;;;;4939031;29;20411;-73
2022/05/17 06:44:10;;;;;;;9.57;4.85;;;;;;;;;;4938759;29;20047;-71
2022/05/17 06:46:39;;;;;;;10.43;7.47;;;;;;;;;;4921744;29;20051;-71
2022/05/17 06:49:16;;;;;;;9.40;6.38;;;;;;;;;;4938949;29;20056;-70
2022/05/17 06:51:45;;;;;;;10.00;6.35;;;;;;;;;;4938785;29;20044;-71
2022/05/17 06:57:37;;;;;;;15.63;11.18;;;;;;;;;;4938495;29;20422;-73
2022/05/17 07:00:09;;;;;;;7.65;5.78;;;;;;;;;;4938182;29;20107;-71
2022/05/17 07:02:43;;;;;;;9.50;6.00;;;;;;;;;;4937191;29;20044;-73
2022/05/17 07:05:12;;;;;;;10.15;5.75;;;;;;;;;;4938361;29;20102;-73
2022/05/17 07:07:42;;;;;;;9.25;6.68;;;;;;;;;;4938239;29;20042;-74
2022/05/17 07:13:09;;;;;;;16.05;6.07;;;;;;;;;;4938331;29;20036;-71
2022/05/17 07:15:49;;;;;;;33.13;7.25;;;;;;;;;;4921650;29;20491;-71
2022/05/17 07:18:20;;;;;;;17.30;6.70;;;;;;;;;;4938449;29;20443;-72
2022/05/17 07:20:51;;;;;;;81.90;10.27;;;;;;;;;;4938364;29;20048;-71
2022/05/17 07:23:24;;;;;;;9.13;5.15;;;;;;;;;;4938352;29;20078;-73
2022/05/17 07:25:52;;;;;;;6.60;5.90;;;;;;;;;;4937949;29;20059;-74
2022/05/17 07:28:30;;;;;;;8.23;4.82;;;;;;;;;;4937908;29;20048;-72
2022/05/17 07:31:01;;;;;;;8.10;5.93;;;;;;;;;;4937833;29;20046;-73
2022/05/17 07:33:37;;;;;;;10.13;6.88;;;;;;;;;;4937570;29;20494;-73
2022/05/17 07:36:10;;;;;;;14.30;7.40;;;;;;;;;;4938183;29;20040;-71
2022/05/17 07:38:38;;;;;;;7.68;6.47;;;;;;;;;;4937889;29;20517;-72
2022/05/17 07:41:07;;;;;;;8.13;5.03;;;;;;;;;;4937755;29;20118;-71
2022/05/17 07:43:37;;;;;;;9.43;5.15;;;;;;;;;;4937644;29;20043;-71
2022/05/17 07:46:12;;;;;;;10.45;5.20;;;;;;;;;;4937936;29;20043;-72
2022/05/17 07:49:11;;;;;;;8.25;5.93;;;;;;;;;;4937766;29;20444;-71
2022/05/17 07:51:40;;;;;;;7.85;4.93;;;;;;;;;;4937065;29;20044;-71
2022/05/17 07:54:14;;;;;;;7.88;5.50;;;;;;;;;;4937015;29;20055;-72
2022/05/17 07:56:47;;;;;;;8.60;6.10;;;;;;;;;;4937663;29;20103;-72
2022/05/17 07:59:20;;;;;;;8.70;4.55;;;;;;;;;;4937663;29;20114;-71
2022/05/17 08:01:54;;;;;;;7.50;5.38;;;;;;;;;;4937620;29;20055;-71
2022/05/17 08:04:24;;;;;;;9.32;4.80;;;;;;;;;;4937218;29;20047;-71
2022/05/17 08:06:52;;;;;;;12.38;6.07;;;;;;;;;;4937567;29;20051;-71
2022/05/17 08:09:20;;;;;;;11.20;6.57;;;;;;;;;;4936926;29;20096;-71
2022/05/17 08:11:49;;;;;;;10.00;5.43;;;;;;;;;;4937103;29;20048;-71
2022/05/17 08:14:19;;;;;;;10.05;5.53;;;;;;;;;;4937180;29;20067;-71
2022/05/17 08:16:49;;;;;;;10.13;5.18;;;;;;;;;;4936957;29;20474;-72
2022/05/17 08:19:21;;;;;;;9.10;5.28;;;;;;;;;;4920395;29;20062;-72
2022/05/17 08:21:48;;;;;;;7.72;5.55;;;;;;;;;;4937275;29;20079;-72
2022/05/17 08:24:16;;;;;;;8.02;4.82;;;;;;;;;;4919881;29;20051;-72
2022/05/17 08:29:40;;;;;;;9.38;4.50;;;;;;;;;;4919734;29;20099;-72
2022/05/17 08:35:09;;;;;;;10.02;5.03;;;;;;;;;;4937012;29;20067;-71
2022/05/17 08:38:03;;;;;;;6.93;4.82;;;;;;;;;;4919689;29;20043;-72
2022/05/17 08:40:33;;;;;;;8.75;5.57;;;;;;;;;;4936475;29;20047;-72
2022/05/17 08:43:26;;;;;;;13.52;7.63;;;;;;;;;;4920055;29;20123;-73
2022/05/17 08:49:58;;;;;;;23.00;14.65;;;;;;;;;;4936515;29;20391;-72
2022/05/17 08:52:27;;;;;;;28.80;12.35;;;;;;;;;;4936049;29;20384;-72
2022/05/17 08:55:03;;;;;;;10.07;6.50;;;;;;;;;;4936374;29;20513;-71
2022/05/17 08:57:44;;;;;;;13.13;8.90;;;;;;;;;;4919961;29;20071;-72
2022/05/17 09:00:20;;;;;;;11.55;5.65;;;;;;;;;;4936458;29;20051;-71
2022/05/17 09:03:04;;;;;;;6.18;4.53;;;;;;;;;;4936534;29;20063;-71
2022/05/17 09:05:47;;;;;;;11.57;7.55;;;;;;;;;;4936475;29;20462;-71
2022/05/17 09:08:21;;;;;;;17.02;8.73;;;;;;;;;;4936222;29;20063;-72
2022/05/17 09:10:54;;;;;;;41.53;15.85;;;;;;;;;;4935750;29;20043;-71
2022/05/17 09:13:28;;;;;;;7.93;5.40;;;;;;;;;;4935987;29;20558;-71
2022/05/17 09:16:23;;;;;;;30.88;13.90;;;;;;;;;;4936193;29;20047;-71
2022/05/17 09:18:51;;;;;;;18.58;9.43;;;;;;;;;;4936036;29;20084;-72
2022/05/17 09:21:28;;;;;;;11.15;5.93;;;;;;;;;;4935873;29;20399;-72
2022/05/17 09:24:04;;;;;;;10.80;6.28;;;;;;;;;;4935886;29;20044;-72
2022/05/17 09:26:37;;;;;;;21.65;5.80;;;;;;;;;;4936087;29;20075;-72
2022/05/17 09:29:18;;;;;;;9.10;6.20;;;;;;;;;;4935859;29;20044;-72
2022/05/17 09:31:52;;;;;;;11.43;7.68;;;;;;;;;;4935880;29;20031;-73
2022/05/17 09:34:39;;;;;;;16.25;13.32;;;;;;;;;;4935890;29;20483;-73
2022/05/17 09:37:18;;;;;;;11.25;7.35;;;;;;;;;;4936260;29;20072;-73
2022/05/17 09:39:49;;;;;;;17.23;10.07;;;;;;;;;;4936238;29;20405;-73
2022/05/17 09:42:24;;;;;;;13.10;7.78;;;;;;;;;;4935694;29;20109;-74
2022/05/17 09:44:56;;;;;;;12.85;8.73;;;;;;;;;;4936123;29;20086;-73
2022/05/17 09:47:35;;;;;;;9.98;7.63;;;;;;;;;;4935878;29;20063;-73
2022/05/17 09:53:07;;;;;;;8.88;6.28;;;;;;;;;;4935752;29;20051;-73
2022/05/17 09:55:36;;;;;;;7.63;5.40;;;;;;;;;;4935855;29;20039;-73
2022/05/17 09:58:11;;;;;;;13.43;5.82;;;;;;;;;;4938368;29;20070;-73
2022/05/17 10:00:43;;;;;;;10.90;6.03;;;;;;;;;;4939400;29;20054;-73
2022/05/17 10:03:13;;;;;;;8.13;5.50;;;;;;;;;;4939446;29;20463;-73
2022/05/17 10:06:02;;;;;;;10.20;8.23;;;;;;;;;;4922381;29;20131;-73
2022/05/17 10:08:35;;;;;;;8.98;5.13;;;;;;;;;;4939517;29;20503;-72
2022/05/17 10:11:04;;;;;;;5.80;4.97;;;;;;;;;;4939385;29;20391;-72
2022/05/17 10:13:38;;;;;;;7.85;5.25;;;;;;;;;;4939350;29;20098;-72
2022/05/17 10:16:13;;;;;;;7.03;4.93;;;;;;;;;;4939562;29;20044;-72
2022/05/17 10:18:58;;;;;;;11.07;5.20;;;;;;;;;;4939265;29;20035;-72
2022/05/17 10:21:43;;;;;;;7.10;3.80;;;;;;;;;;4938931;29;20537;-73
2022/05/17 10:24:11;;;;;;;7.22;4.40;;;;;;;;;;4938108;29;20506;-73
2022/05/17 10:26:44;;;;;;;9.73;4.50;;;;;;;;;;4938925;29;20513;-73
2022/05/17 10:29:16;;;;;;;11.90;5.50;;;;;;;;;;4938974;29;20586;-73
2022/05/17 10:32:01;;;;;;;8.80;4.78;;;;;;;;;;4938663;29;20047;-73
2022/05/17 10:34:51;;;;;;;7.07;4.30;;;;;;;;;;4939063;29;20043;-72
2022/05/17 10:37:32;;;;;;;6.18;4.43;;;;;;;;;;4938605;29;20051;-72
2022/05/17 10:40:20;;;;;;;6.55;4.30;;;;;;;;;;4938792;29;20040;-73
2022/05/17 10:42:48;;;;;;;6.15;3.95;;;;;;;;;;4939592;29;20055;-73
2022/05/17 10:45:32;;;;;;;6.57;4.43;;;;;;;;;;4940091;29;20050;-74
2022/05/17 10:48:17;;;;;;;4.93;3.65;;;;;;;;;;4938817;29;20052;-73
2022/05/17 10:50:54;;;;;;;8.05;3.38;;;;;;;;;;4938848;29;20526;-73
2022/05/17 10:53:37;;;;;;;5.50;3.17;;;;;;;;;;4939086;29;20380;-73
2022/05/17 10:56:15;;;;;;;5.75;3.50;;;;;;;;;;4938354;29;20503;-73
2022/05/17 10:58:59;;;;;;;6.82;4.45;;;;;;;;;;4938335;29;20054;-73
2022/05/17 11:01:37;;;;;;;5.00;4.32;;;;;;;;;;4938514;29;20127;-73
2022/05/17 11:04:20;;;;;;;11.32;4.40;;;;;;;;;;4938336;29;20075;-73
2022/05/17 11:06:51;;;;;;;9.05;4.45;;;;;;;;;;4938364;29;20063;-72
2022/05/17 11:09:24;;;;;;;5.55;3.70;;;;;;;;;;4937800;29;20054;-73
2022/05/17 11:11:56;;;;;;;5.22;3.60;;;;;;;;;;4938262;29;20071;-73
2022/05/17 11:14:38;;;;;;;7.88;4.70;;;;;;;;;;4938145;29;20047;-72
2022/05/17 11:17:14;;;;;;;9.98;3.67;;;;;;;;;;4938023;29;20095;-72
2022/05/17 11:19:56;;;;;;;7.70;3.88;;;;;;;;;;4938024;29;20052;-73
2022/05/17 11:22:44;;;;;;;5.43;3.20;;;;;;;;;;4938231;29;20052;-73
2022/05/17 11:25:23;;;;;;;5.20;2.70;;;;;;;;;;4920944;29;20068;-72
2022/05/17 11:27:51;;;;;;;7.45;3.13;;;;;;;;;;4937936;29;20079;-73
2022/05/17 11:30:38;;;;;;;4.40;3.22;;;;;;;;;;4937994;29;20040;-73
2022/05/17 11:33:11;;;;;;;6.60;3.20;;;;;;;;;;4920849;29;20096;-72
2022/05/17 11:35:57;;;;;;;6.10;3.30;;;;;;;;;;4921366;29;20044;-73
2022/05/17 11:38:32;;;;;;;5.18;2.90;;;;;;;;;;4938199;29;20047;-73
2022/05/17 11:41:01;;;;;;;5.35;3.05;;;;;;;;;;4937623;29;20047;-72
2022/05/17 11:43:50;;;;;;;3.47;2.70;;;;;;;;;;4937450;29;20036;-73
2022/05/17 11:46:32;;;;;;;5.70;3.03;;;;;;;;;;4937888;29;20450;-73
2022/05/17 11:49:24;;;;;;;4.93;3.30;;;;;;;;;;4937999;29;20039;-73
2022/05/17 11:52:17;;;;;;;3.83;3.10;;;;;;;;;;4938031;29;20056;-73
2022/05/17 11:54:51;;;;;;;4.97;3.15;;;;;;;;;;4937687;29;20481;-73
2022/05/17 11:57:30;;;;;;;5.38;2.90;;;;;;;;;;4937797;29;20112;-73
2022/05/17 11:59:58;;;;;;;11.95;6.60;;;;;;;;;;4937512;29;20048;-74
2022/05/17 12:02:47;;;;;;;7.38;5.10;;;;;;;;;;4938037;29;20031;-74
2022/05/17 12:05:36;;;;;;;4.38;3.50;;;;;;;;;;4937730;29;20075;-73
2022/05/17 12:08:25;;;;;;;9.35;4.32;;;;;;;;;;4937081;29;20040;-73
2022/05/17 12:10:59;;;;;;;8.82;3.20;;;;;;;;;;4937064;29;20055;-73
2022/05/17 12:13:29;;;;;;;9.88;4.05;;;;;;;;;;4937022;29;20123;-73
2022/05/17 12:16:01;;;;;;;7.53;3.17;;;;;;;;;;4937458;29;20043;-73
2022/05/17 12:18:40;;;;;;;7.20;3.08;;;;;;;;;;4937075;29;20056;-74
2022/05/17 12:21:15;;;;;;;5.47;2.88;;;;;;;;;;4936365;29;20043;-73
2022/05/17 12:24:03;;;;;;;4.32;3.00;;;;;;;;;;4937109;29;20049;-73
2022/05/17 12:26:43;;;;;;;5.28;3.33;;;;;;;;;;4936682;29;20059;-73
2022/05/17 12:32:01;;;;;;;6.20;3.88;;;;;;;;;;4936628;29;20055;-73
2022/05/17 12:34:42;;;;;;;6.38;3.55;;;;;;;;;;4936957;29;20078;-73
2022/05/17 12:37:34;;;;;;;6.65;3.50;;;;;;;;;;4937830;29;20051;-73
2022/05/17 12:43:03;;;;;;;5.63;3.28;;;;;;;;;;4936644;29;20051;-73
2022/05/17 12:45:56;;;;;;;6.75;3.10;;;;;;;;;;4936363;29;20460;-73
2022/05/17 12:48:36;;;;;;;4.57;2.90;;;;;;;;;;4936329;29;20044;-73
2022/05/17 12:51:21;;;;;;;4.88;2.47;;;;;;;;;;4936244;29;20051;-72
2022/05/17 12:53:51;;;;;;;5.53;2.83;;;;;;;;;;4935164;29;20106;-72
2022/05/17 12:56:43;;;;;;;7.32;3.40;;;;;;;;;;4935748;29;20554;-72
2022/05/17 12:59:12;;;;;;;6.35;3.63;;;;;;;;;;4935913;29;20439;-73
2022/05/17 13:01:45;;;;;;;7.15;3.55;;;;;;;;;;4926366;29;20043;-72
2022/05/17 13:04:20;;;;;;;6.43;2.92;;;;;;;;;;4917051;29;20094;-72
2022/05/17 13:06:51;;;;;;;8.82;5.18;;;;;;;;;;4917484;29;20519;-72
2022/05/17 13:09:24;;;;;;;4.80;3.10;;;;;;;;;;4916914;29;20491;-72
2022/05/17 13:11:56;;;;;;;8.93;4.28;;;;;;;;;;4917303;29;20467;-72
2022/05/17 13:14:30;;;;;;;4.20;2.95;;;;;;;;;;4917256;29;20083;-72
2022/05/17 13:17:12;;;;;;;6.07;4.57;;;;;;;;;;4917103;29;20044;-73
2022/05/17 13:20:08;;;;;;;6.53;3.30;;;;;;;;;;4917046;29;20036;-74
2022/05/17 13:23:01;;;;;;;5.57;3.05;;;;;;;;;;4915750;29;20415;-73
2022/05/17 13:25:53;;;;;;;6.28;3.30;;;;;;;;;;4917097;29;20496;-73
2022/05/17 13:28:29;;;;;;;5.97;2.80;;;;;;;;;;4916617;29;20036;-73
2022/05/17 13:31:14;;;;;;;7.10;4.35;;;;;;;;;;4916593;29;20474;-72
2022/05/17 13:33:54;;;;;;;5.85;4.18;;;;;;;;;;4917165;29;20044;-74
2022/05/17 13:36:41;;;;;;;5.45;3.20;;;;;;;;;;4917027;29;20067;-74
2022/05/17 13:39:29;;;;;;;5.43;2.70;;;;;;;;;;4917168;29;20059;-74
2022/05/17 13:42:16;;;;;;;4.07;2.83;;;;;;;;;;4917291;29;20044;-73
2022/05/17 13:44:52;;;;;;;9.35;3.25;;;;;;;;;;4915660;29;20115;-72
2022/05/17 13:47:27;;;;;;;6.05;3.30;;;;;;;;;;4916700;29;20044;-74
2022/05/17 13:49:59;;;;;;;5.97;2.80;;;;;;;;;;4916756;29;20119;-73
2022/05/17 13:52:46;;;;;;;5.45;3.95;;;;;;;;;;4917141;29;20043;-73
2022/05/17 13:55:14;;;;;;;4.28;2.63;;;;;;;;;;4916690;29;20044;-73
2022/05/17 13:57:47;;;;;;;6.18;4.38;;;;;;;;;;4916423;29;20044;-73
2022/05/17 14:00:21;;;;;;;6.90;2.80;;;;;;;;;;4916637;29;20055;-73
2022/05/17 14:02:52;;;;;;;;;;;;;;;;;;4916848;29;20448;-73
2022/05/17 14:05:21;;;;;;;7.38;2.72;;;;;;;;;;4916901;29;20289;-73
2022/05/17 14:07:56;;;;;;;8.52;3.20;;;;;;;;;;4916485;29;20050;-74
2022/05/17 14:13:28;;;;;;;7.85;3.17;;;;;;;;;;4916079;29;20064;-75
2022/05/17 14:16:02;;;;;;;5.93;2.78;;;;;;;;;;4916518;29;20036;-71
2022/05/17 14:18:33;;;;;;;3.67;2.78;;;;;;;;;;4916429;29;20044;-71
2022/05/17 14:21:05;;;;;;;4.75;2.80;;;;;;;;;;4917672;29;20384;-72
2022/05/17 14:23:35;;;;;;;3.85;2.80;;;;;;;;;;4916805;29;20052;-72
2022/05/17 14:26:27;;;;;;;5.50;3.40;;;;;;;;;;4916217;29;20421;-72
2022/05/17 14:28:58;;;;;;;7.70;3.45;;;;;;;;;;4916309;29;20248;-71
2022/05/17 14:31:30;;;;;;;8.20;2.80;;;;;;;;;;4915870;29;20044;-71
2022/05/17 14:34:16;;;;;;;11.93;7.38;;;;;;;;;;4916422;29;20099;-71
2022/05/17 14:36:48;;;;;;;7.55;3.13;;;;;;;;;;4916491;29;20050;-71
2022/05/17 14:39:15;;;;;;;4.75;3.00;;;;;;;;;;4913961;29;20364;-71
2022/05/17 14:41:49;;;;;;;5.50;3.33;;;;;;;;;;4914757;29;20051;-71
2022/05/17 14:44:18;;;;;;;8.05;3.22;;;;;;;;;;4918355;29;20130;-73
2022/05/17 14:47:03;;;;;;;5.17;3.47;;;;;;;;;;4919865;29;20484;-73
2022/05/17 14:49:32;;;;;;;6.95;3.35;;;;;;;;;;4919019;29;20074;-71
2022/05/17 14:51:59;;;;;;;10.55;4.05;;;;;;;;;;4919196;29;20044;-72
2022/05/17 14:54:28;;;;;;;4.60;3.20;;;;;;;;;;4919427;29;20412;-72
2022/05/17 14:56:55;;;;;;;5.78;2.70;;;;;;;;;;4919331;29;20039;-71
2022/05/17 14:59:23;;;;;;;5.90;2.90;;;;;;;;;;4919443;29;20044;-73
2022/05/17 15:01:51;;;;;;;5.18;3.13;;;;;;;;;;4919432;29;20036;-73
2022/05/17 15:04:20;;;;;;;5.55;3.00;;;;;;;;;;4919476;29;20491;-73
2022/05/17 15:06:51;;;;;;;7.05;3.10;;;;;;;;;;4919318;29;20068;-73
2022/05/17 15:09:20;;;;;;;6.78;3.00;;;;;;;;;;4919688;29;20044;-73
2022/05/17 15:12:00;;;;;;;12.02;3.10;;;;;;;;;;4919700;29;20063;-73
2022/05/17 15:14:28;;;;;;;5.45;3.70;;;;;;;;;;4917863;29;20040;-73
2022/05/17 15:16:58;;;;;;;5.70;3.20;;;;;;;;;;4902122;29;20052;-72
2022/05/17 15:19:28;;;;;;;10.88;7.47;;;;;;;;;;4919086;29;20044;-73
2022/05/17 15:22:03;;;;;;;8.60;5.28;;;;;;;;;;4918919;29;20130;-73
2022/05/17 15:24:36;;;;;;;6.78;3.83;;;;;;;;;;4918675;29;20063;-73
2022/05/17 15:27:17;;;;;;;7.85;3.42;;;;;;;;;;4917769;29;20143;-73
2022/05/17 15:29:55;;;;;;;;;;;;;;;;;;;;;
2022/05/17 15:32:47;;;;;;;4.70;3.00;;;;;;;;;;4920969;29;20060;-75
2022/05/17 15:35:19;;;;;;;10.77;4.80;;;;;;;;;;4918472;29;20076;-72
2022/05/17 15:37:47;;;;;;;10.60;4.93;;;;;;;;;;4918086;29;20058;-72
2022/05/17 15:40:15;;;;;;;5.75;3.30;;;;;;;;;;4919008;29;20426;-73
2022/05/17 15:42:44;;;;;;;3.75;2.92;;;;;;;;;;4919066;29;20380;-72
2022/05/17 15:45:20;;;;;;;7.07;3.65;;;;;;;;;;4917540;29;20176;-73
2022/05/17 15:53:38;;;;;;;22.02;3.80;;;;;;;;;;4918573;29;20036;-73
2022/05/17 15:56:08;;;;;;;25.95;5.22;;;;;;;;;;4917357;29;20067;-72
2022/05/17 15:58:37;;;;;;;34.25;7.47;;;;;;;;;;4917580;29;20058;-72
2022/05/17 16:01:07;;;;;;;9.45;3.92;;;;;;;;;;4918441;29;20384;-72